createdAt,value
2018-12-19T00:02:25.929Z,-0.80
2018-12-19T00:04:57.985Z,-0.80
2018-12-19T00:07:30.402Z,-0.80
2018-12-19T00:10:02.674Z,-0.80
2018-12-19T00:12:35.211Z,-0.80
2018-12-19T00:15:09.493Z,-0.80
2018-12-19T00:17:41.249Z,-0.80
2018-12-19T00:20:12.866Z,-0.80
2018-12-19T00:22:45.196Z,-0.80
2018-12-19T00:25:17.446Z,-0.80
2018-12-19T00:27:49.864Z,-0.90
2018-12-19T00:30:23.879Z,-0.90
2018-12-19T00:32:57.986Z,-0.90
2018-12-19T00:35:29.923Z,-0.90
2018-12-19T00:38:02.533Z,-0.90
2018-12-19T00:40:34.602Z,-0.90
2018-12-19T00:43:06.702Z,-0.90
2018-12-19T00:45:39.208Z,-0.90
2018-12-19T00:48:11.396Z,-0.90
2018-12-19T00:50:43.616Z,-0.90
2018-12-19T00:53:15.732Z,-0.90
2018-12-19T00:55:47.864Z,-0.90
2018-12-19T00:58:20.270Z,-0.90
2018-12-19T01:00:52.273Z,-0.90
2018-12-19T01:03:22.742Z,-1.00
2018-12-19T01:05:54.863Z,-1.00
2018-12-19T01:08:27.068Z,-1.00
2018-12-19T01:10:59.372Z,-1.00
2018-12-19T01:13:33.103Z,-1.00
2018-12-19T01:16:05.211Z,-1.10
2018-12-19T01:18:37.390Z,-1.10
2018-12-19T01:21:09.595Z,-1.10
2018-12-19T01:23:41.962Z,-1.10
2018-12-19T01:26:12.096Z,-1.10
2018-12-19T01:28:43.772Z,-1.10
2018-12-19T01:31:16.023Z,-1.10
2018-12-19T01:33:48.583Z,-1.10
2018-12-19T01:36:20.984Z,-1.10
2018-12-19T01:38:53.218Z,-1.10
2018-12-19T01:41:23.510Z,-1.10
2018-12-19T01:43:55.593Z,-1.10
2018-12-19T01:46:27.564Z,-1.10
2018-12-19T01:49:00.029Z,-1.10
2018-12-19T01:51:32.229Z,-1.10
2018-12-19T01:54:04.440Z,-1.10
2018-12-19T01:56:36.734Z,-1.10
2018-12-19T01:59:08.683Z,-1.20
2018-12-19T02:01:41.043Z,-1.20
2018-12-19T02:04:13.046Z,-1.20
2018-12-19T02:06:45.296Z,-1.20
2018-12-19T02:09:17.691Z,-1.20
2018-12-19T02:11:49.735Z,-1.20
2018-12-19T02:14:21.796Z,-1.20
2018-12-19T02:16:54.193Z,-1.20
2018-12-19T02:19:26.478Z,-1.20
2018-12-19T02:21:58.689Z,-1.20
2018-12-19T02:24:30.684Z,-1.10
2018-12-19T02:27:03.336Z,-1.20
2018-12-19T02:29:35.630Z,-1.20
2018-12-19T02:32:09.386Z,-1.20
2018-12-19T02:34:42.064Z,-1.20
2018-12-19T02:37:14.298Z,-1.20
2018-12-19T02:39:46.915Z,-1.20
2018-12-19T02:42:18.750Z,-1.20
2018-12-19T02:44:51.096Z,-1.20
2018-12-19T02:47:23.286Z,-1.30
2018-12-19T02:49:55.442Z,-1.30
2018-12-19T02:52:27.620Z,-1.30
2018-12-19T02:55:00.313Z,-1.30
2018-12-19T02:57:32.270Z,-1.30
2018-12-19T03:00:05.813Z,-1.40
2018-12-19T03:02:37.816Z,-1.40
2018-12-19T03:05:10.385Z,-1.40
2018-12-19T03:07:44.739Z,-1.40
2018-12-19T03:10:17.362Z,-1.40
2018-12-19T03:12:49.494Z,-1.40
2018-12-19T03:15:21.795Z,-1.30
2018-12-19T03:17:54.358Z,-1.30
2018-12-19T03:20:26.517Z,-1.20
2018-12-19T03:22:58.568Z,-1.10
2018-12-19T03:25:31.015Z,-1.00
2018-12-19T03:28:03.074Z,-0.90
2018-12-19T03:30:35.648Z,-0.80
2018-12-19T03:33:07.994Z,-0.70
2018-12-19T03:35:40.262Z,-0.60
2018-12-19T03:38:16.500Z,-0.60
2018-12-19T03:40:48.598Z,-0.50
2018-12-19T03:43:20.855Z,-0.50
2018-12-19T03:45:53.207Z,-0.40
2018-12-19T03:48:30.793Z,-0.30
2018-12-19T03:51:03.367Z,-0.30
2018-12-19T03:53:35.330Z,-0.30
2018-12-19T03:56:07.745Z,-0.20
2018-12-19T03:58:39.640Z,-0.20
2018-12-19T04:01:11.958Z,-0.10
2018-12-19T04:03:44.416Z,-0.10
2018-12-19T04:06:17.282Z,-0.10
2018-12-19T04:08:49.524Z,-0.10
2018-12-19T04:11:21.668Z,0.00
2018-12-19T04:13:53.997Z,0.00
2018-12-19T04:16:26.579Z,0.10
2018-12-19T04:18:58.515Z,0.10
2018-12-19T04:21:30.927Z,0.10
2018-12-19T04:24:03.368Z,0.20
2018-12-19T04:26:35.498Z,0.30
2018-12-19T04:29:07.773Z,0.30
2018-12-19T04:31:40.142Z,0.30
2018-12-19T04:34:13.106Z,0.40
2018-12-19T04:36:47.629Z,0.40
2018-12-19T04:39:20.035Z,0.50
2018-12-19T04:41:52.203Z,0.50
2018-12-19T04:44:24.411Z,0.50
2018-12-19T04:46:56.685Z,0.50
2018-12-19T04:49:28.894Z,0.40
2018-12-19T04:52:02.578Z,0.40
2018-12-19T04:54:34.350Z,0.40
2018-12-19T04:57:06.737Z,0.40
2018-12-19T04:59:38.839Z,0.40
2018-12-19T05:02:11.116Z,0.40
2018-12-19T05:04:43.466Z,0.40
2018-12-19T05:07:13.589Z,0.40
2018-12-19T05:09:45.420Z,0.40
2018-12-19T05:12:17.591Z,0.40
2018-12-19T05:14:50.177Z,0.50
2018-12-19T05:17:22.180Z,0.50
2018-12-19T05:19:54.563Z,0.50
2018-12-19T05:22:26.777Z,0.50
2018-12-19T05:24:58.992Z,0.60
2018-12-19T05:27:31.407Z,0.60
2018-12-19T05:30:06.186Z,0.60
2018-12-19T05:32:38.513Z,0.60
2018-12-19T05:35:10.685Z,0.60
2018-12-19T05:37:43.014Z,0.50
2018-12-19T05:40:18.829Z,0.50
2018-12-19T05:42:49.691Z,0.60
2018-12-19T05:45:21.719Z,0.60
2018-12-19T05:47:53.938Z,0.60
2018-12-19T05:50:28.561Z,0.70
2018-12-19T05:53:00.537Z,0.70
2018-12-19T05:55:34.034Z,0.70
2018-12-19T05:58:07.532Z,0.70
2018-12-19T06:00:39.256Z,0.70
2018-12-19T06:03:11.721Z,0.70
2018-12-19T06:05:44.113Z,0.70
2018-12-19T06:08:16.038Z,0.70
2018-12-19T06:10:48.324Z,0.70
2018-12-19T06:13:20.511Z,0.70
2018-12-19T06:15:52.753Z,0.70
2018-12-19T06:18:24.953Z,0.70
2018-12-19T06:20:57.230Z,0.70
2018-12-19T06:23:29.521Z,0.70
2018-12-19T06:26:08.040Z,0.70
2018-12-19T06:28:40.658Z,0.70
2018-12-19T06:31:12.683Z,0.70
2018-12-19T06:33:45.036Z,0.70
2018-12-19T06:36:17.156Z,0.70
2018-12-19T06:38:49.178Z,0.60
2018-12-19T06:41:21.145Z,0.60
2018-12-19T06:43:53.369Z,0.60
2018-12-19T06:46:25.561Z,0.60
2018-12-19T06:48:57.810Z,0.60
2018-12-19T06:51:30.054Z,0.60
2018-12-19T06:54:03.032Z,0.60
2018-12-19T06:56:35.363Z,0.60
2018-12-19T06:59:07.764Z,0.60
2018-12-19T07:01:40.114Z,0.60
2018-12-19T07:04:10.384Z,0.70
2018-12-19T07:06:42.434Z,0.70
2018-12-19T07:09:15.128Z,0.60
2018-12-19T07:11:46.940Z,0.60
2018-12-19T07:14:19.506Z,0.70
2018-12-19T07:16:51.523Z,0.80
2018-12-19T07:19:23.718Z,0.80
2018-12-19T07:21:56.202Z,0.80
2018-12-19T07:24:28.283Z,0.80
2018-12-19T07:27:00.237Z,0.80
2018-12-19T07:29:32.606Z,0.80
2018-12-19T07:32:04.814Z,0.90
2018-12-19T07:34:36.880Z,0.90
2018-12-19T07:37:09.194Z,0.90
2018-12-19T07:39:41.542Z,1.00
2018-12-19T07:42:13.981Z,0.90
2018-12-19T07:44:46.254Z,1.00
2018-12-19T07:47:17.897Z,1.00
2018-12-19T07:49:50.203Z,1.10
2018-12-19T07:52:22.222Z,1.10
2018-12-19T07:54:54.394Z,1.00
2018-12-19T07:57:26.594Z,1.00
2018-12-19T07:59:58.982Z,1.10
2018-12-19T08:02:31.232Z,1.20
2018-12-19T08:05:05.177Z,1.20
2018-12-19T08:07:36.864Z,1.40
2018-12-19T08:10:08.150Z,1.40
2018-12-19T08:12:40.508Z,1.40
2018-12-19T08:15:13.279Z,1.50
2018-12-19T08:17:48.138Z,1.50
2018-12-19T08:20:20.721Z,1.50
2018-12-19T08:22:52.862Z,1.50
2018-12-19T08:25:25.122Z,1.50
2018-12-19T08:27:57.399Z,1.60
2018-12-19T08:30:29.596Z,1.60
2018-12-19T08:33:01.836Z,1.60
2018-12-19T08:35:33.650Z,1.60
2018-12-19T08:38:05.813Z,1.60
2018-12-19T08:40:36.148Z,1.70
2018-12-19T08:43:08.122Z,1.70
2018-12-19T08:45:40.914Z,1.80
2018-12-19T08:48:15.032Z,1.80
2018-12-19T08:50:47.529Z,1.80
2018-12-19T08:53:19.911Z,1.90
2018-12-19T08:55:52.090Z,1.80
2018-12-19T08:58:24.522Z,1.80
2018-12-19T09:00:56.835Z,1.90
2018-12-19T09:03:31.179Z,2.00
2018-12-19T09:06:03.136Z,2.10
2018-12-19T09:08:35.794Z,2.10
2018-12-19T09:11:07.657Z,2.20
2018-12-19T09:13:39.508Z,2.20
2018-12-19T09:16:12.568Z,2.30
2018-12-19T09:18:44.231Z,2.30
2018-12-19T09:21:16.291Z,2.40
2018-12-19T09:23:46.542Z,2.50
2018-12-19T09:26:18.949Z,2.50
2018-12-19T09:28:53.260Z,2.60
2018-12-19T09:31:23.036Z,2.60
2018-12-19T09:33:55.030Z,2.70
2018-12-19T09:36:27.301Z,2.80
2018-12-19T09:38:59.618Z,3.00
2018-12-19T09:41:31.758Z,3.00
2018-12-19T09:44:03.881Z,3.10
2018-12-19T09:46:36.360Z,3.10
2018-12-19T09:49:12.366Z,3.10
2018-12-19T09:51:42.791Z,3.10
2018-12-19T09:54:15.013Z,3.10
2018-12-19T09:56:47.207Z,3.20
2018-12-19T09:59:19.325Z,3.20
2018-12-19T10:01:51.521Z,3.20
2018-12-19T10:04:23.424Z,3.20
2018-12-19T10:06:55.461Z,3.20
2018-12-19T10:09:27.622Z,3.20
2018-12-19T10:12:00.043Z,3.30
2018-12-19T10:14:32.377Z,3.30
2018-12-19T10:17:04.621Z,3.40
2018-12-19T10:19:36.645Z,3.40
2018-12-19T10:22:09.233Z,3.40
2018-12-19T10:25:12.441Z,3.50
2018-12-19T10:27:46.542Z,3.50
2018-12-19T10:30:20.825Z,3.50
2018-12-19T10:32:56.571Z,3.50
2018-12-19T10:35:28.827Z,3.50
2018-12-19T10:38:00.855Z,3.60
2018-12-19T10:40:32.939Z,3.60
2018-12-19T10:43:05.290Z,3.70
2018-12-19T10:45:41.681Z,3.70
2018-12-19T10:48:15.967Z,3.70
2018-12-19T10:50:49.411Z,3.60
2018-12-19T10:53:21.808Z,3.70
2018-12-19T10:55:56.144Z,3.60
2018-12-19T10:58:28.737Z,3.70
2018-12-19T11:01:00.392Z,3.60
2018-12-19T11:03:37.553Z,3.60
2018-12-19T11:06:11.682Z,3.60
2018-12-19T11:08:43.538Z,3.70
2018-12-19T11:11:17.916Z,3.60
2018-12-19T11:13:49.844Z,3.70
2018-12-19T11:16:21.950Z,3.80
2018-12-19T11:18:54.116Z,3.80
2018-12-19T11:21:26.206Z,3.80
2018-12-19T11:23:58.614Z,3.90
2018-12-19T11:26:30.691Z,4.00
2018-12-19T11:29:03.973Z,4.00
2018-12-19T11:31:36.938Z,4.00
2018-12-19T11:34:09.968Z,4.10
2018-12-19T11:36:42.491Z,4.10
2018-12-19T11:39:15.113Z,4.00
2018-12-19T11:41:46.999Z,4.00
2018-12-19T11:44:19.094Z,4.10
2018-12-19T11:46:51.374Z,4.10
2018-12-19T11:49:23.965Z,4.10
2018-12-19T11:51:55.974Z,4.30
2018-12-19T11:54:28.213Z,4.30
2018-12-19T11:57:00.937Z,4.30
2018-12-19T11:59:33.097Z,4.30
2018-12-19T12:02:07.399Z,4.30
2018-12-19T12:04:40.105Z,4.30
2018-12-19T12:07:12.631Z,4.30
2018-12-19T12:09:42.762Z,4.30
2018-12-19T12:12:15.134Z,4.20
2018-12-19T12:14:49.581Z,4.20
2018-12-19T12:17:21.162Z,4.20
2018-12-19T12:19:53.872Z,4.30
2018-12-19T12:22:26.429Z,4.40
2018-12-19T12:24:58.600Z,4.30
2018-12-19T12:27:30.681Z,4.30
2018-12-19T12:30:05.235Z,4.30
2018-12-19T12:32:37.153Z,4.20
2018-12-19T12:35:09.540Z,4.20
2018-12-19T12:37:43.663Z,4.20
2018-12-19T12:40:15.629Z,4.20
2018-12-19T12:42:47.659Z,4.20
2018-12-19T12:45:20.077Z,4.20
2018-12-19T12:47:52.073Z,4.20
2018-12-19T12:50:24.113Z,4.20
2018-12-19T12:52:56.448Z,4.10
2018-12-19T12:55:28.346Z,4.20
2018-12-19T12:58:00.564Z,4.20
2018-12-19T13:00:32.950Z,4.10
2018-12-19T13:03:04.971Z,4.00
2018-12-19T13:05:37.416Z,4.00
2018-12-19T13:08:09.780Z,4.00
2018-12-19T13:10:42.009Z,3.90
2018-12-19T13:13:14.144Z,3.90
2018-12-19T13:15:47.556Z,3.80
2018-12-19T13:18:19.711Z,3.80
2018-12-19T13:20:51.848Z,3.70
2018-12-19T13:23:23.881Z,3.70
2018-12-19T13:25:56.284Z,3.70
2018-12-19T13:28:28.376Z,3.70
2018-12-19T13:31:00.746Z,3.60
2018-12-19T13:33:33.062Z,3.60
2018-12-19T13:36:05.159Z,3.60
2018-12-19T13:38:39.649Z,3.50
2018-12-19T13:41:11.470Z,3.50
2018-12-19T13:43:43.876Z,3.50
2018-12-19T13:46:18.296Z,3.50
2018-12-19T13:48:48.766Z,3.50
2018-12-19T13:51:21.144Z,3.40
2018-12-19T13:53:53.284Z,3.40
2018-12-19T13:56:25.646Z,3.40
2018-12-19T13:58:58.042Z,3.40
2018-12-19T14:01:29.818Z,3.30
2018-12-19T14:04:02.344Z,3.30
2018-12-19T14:06:36.560Z,3.20
2018-12-19T14:09:08.779Z,3.20
2018-12-19T14:11:40.883Z,3.10
2018-12-19T14:14:13.146Z,3.10
2018-12-19T14:16:45.866Z,3.00
2018-12-19T14:19:18.708Z,3.00
2018-12-19T14:21:51.028Z,2.90
2018-12-19T14:24:23.226Z,2.90
2018-12-19T14:26:55.335Z,2.90
2018-12-19T14:29:27.410Z,2.90
2018-12-19T14:31:59.494Z,2.80
2018-12-19T14:34:31.632Z,2.80
2018-12-19T14:37:03.974Z,2.70
2018-12-19T14:39:37.198Z,2.70
2018-12-19T14:42:09.610Z,2.70
2018-12-19T14:44:39.836Z,2.60
2018-12-19T14:47:12.482Z,2.60
2018-12-19T14:49:44.808Z,2.50
2018-12-19T14:52:16.992Z,2.50
2018-12-19T14:54:48.993Z,2.40
2018-12-19T14:57:21.295Z,2.40
2018-12-19T14:59:53.184Z,2.40
2018-12-19T15:02:25.299Z,2.30
2018-12-19T15:04:59.693Z,2.40
2018-12-19T15:07:32.573Z,2.30
2018-12-19T15:10:05.284Z,2.20
2018-12-19T15:12:37.174Z,2.20
2018-12-19T15:15:09.736Z,2.20
2018-12-19T15:17:41.719Z,2.20
2018-12-19T15:20:13.961Z,2.10
2018-12-19T15:22:46.326Z,2.20
2018-12-19T15:25:18.395Z,2.20
2018-12-19T15:27:50.462Z,2.10
2018-12-19T15:30:22.674Z,2.10
2018-12-19T15:32:54.993Z,2.10
2018-12-19T15:35:26.923Z,2.10
2018-12-19T15:37:59.197Z,2.10
2018-12-19T15:40:31.260Z,2.10
2018-12-19T15:43:03.902Z,2.10
2018-12-19T15:45:36.079Z,2.00
2018-12-19T15:48:08.477Z,2.00
2018-12-19T15:50:40.449Z,2.10
2018-12-19T15:53:12.700Z,2.00
2018-12-19T15:55:45.101Z,2.00
2018-12-19T15:58:15.219Z,2.00
2018-12-19T16:00:47.155Z,2.00
2018-12-19T16:03:19.434Z,2.00
2018-12-19T16:05:51.511Z,2.00
2018-12-19T16:08:23.879Z,2.00
2018-12-19T16:10:55.941Z,2.00
2018-12-19T16:13:28.277Z,2.00
2018-12-19T16:16:00.967Z,2.00
2018-12-19T16:18:32.776Z,2.00
2018-12-19T16:21:05.191Z,2.00
2018-12-19T16:23:37.092Z,2.00
2018-12-19T16:26:09.278Z,2.00
2018-12-19T16:28:41.249Z,2.00
2018-12-19T16:31:13.291Z,1.90
2018-12-19T16:33:45.595Z,2.00
2018-12-19T16:36:17.606Z,2.00
2018-12-19T16:38:53.077Z,2.10
2018-12-19T16:41:25.035Z,2.10
2018-12-19T16:44:16.550Z,2.10
2018-12-19T16:46:51.436Z,2.00
2018-12-19T16:49:24.222Z,2.00
2018-12-19T16:51:58.446Z,2.00
2018-12-19T16:54:41.415Z,2.00
2018-12-19T16:57:18.944Z,2.00
2018-12-19T16:59:52.492Z,2.00
2018-12-19T17:02:25.431Z,1.90
2018-12-19T17:05:00.105Z,1.90
2018-12-19T17:07:35.279Z,1.90
2018-12-19T17:10:12.357Z,1.90
2018-12-19T17:12:52.609Z,1.90
2018-12-19T17:15:31.941Z,1.80
2018-12-19T17:18:07.281Z,1.80
2018-12-19T17:20:42.355Z,1.80
2018-12-19T17:23:21.520Z,1.80
2018-12-19T17:26:03.425Z,1.80
2018-12-19T17:28:45.493Z,1.80
2018-12-19T17:31:20.953Z,1.80
2018-12-19T17:34:03.053Z,1.70
2018-12-19T17:36:37.142Z,1.70
2018-12-19T17:39:13.387Z,1.60
2018-12-19T17:41:54.919Z,1.60
2018-12-19T17:44:37.176Z,1.60
2018-12-19T17:47:10.793Z,1.60
2018-12-19T17:49:47.720Z,1.50
2018-12-19T17:52:23.041Z,1.50
2018-12-19T17:54:58.084Z,1.50
2018-12-19T17:57:32.530Z,1.50
2018-12-19T18:00:10.125Z,1.60
2018-12-19T18:02:52.084Z,1.60
2018-12-19T18:05:33.091Z,1.60
2018-12-19T18:08:11.756Z,1.60
2018-12-19T18:10:48.092Z,1.60
2018-12-19T18:13:25.272Z,1.70
2018-12-19T18:16:01.525Z,1.70
2018-12-19T18:18:41.558Z,1.70
2018-12-19T18:21:18.774Z,1.70
2018-12-19T18:24:00.130Z,1.60
2018-12-19T18:26:35.610Z,1.60
2018-12-19T18:29:08.894Z,1.60
2018-12-19T18:31:40.625Z,1.60
2018-12-19T18:34:14.190Z,1.60
2018-12-19T18:36:47.023Z,1.50
2018-12-19T18:39:34.499Z,1.50
2018-12-19T18:42:09.951Z,1.50
2018-12-19T18:44:51.000Z,1.40
2018-12-19T18:47:24.361Z,1.40
2018-12-19T18:49:59.651Z,1.50
2018-12-19T19:00:21.479Z,1.30
2018-12-19T19:02:58.062Z,1.20
2018-12-19T19:05:32.617Z,1.20
2018-12-19T19:08:07.482Z,1.30
2018-12-19T19:10:40.458Z,1.20
2018-12-19T19:13:19.520Z,1.20
2018-12-19T19:15:50.022Z,1.20
2018-12-19T19:18:25.316Z,1.10
2018-12-19T19:21:07.394Z,1.10
2018-12-19T19:23:41.958Z,1.10
2018-12-19T19:26:22.142Z,1.00
2018-12-19T19:28:58.678Z,1.00
2018-12-19T19:31:32.279Z,1.10
2018-12-19T19:34:05.319Z,1.10
2018-12-19T19:36:40.522Z,1.10
2018-12-19T19:39:16.958Z,1.10
2018-12-19T19:41:49.918Z,1.10
2018-12-19T19:44:31.508Z,1.10
2018-12-19T19:47:04.270Z,1.10
2018-12-19T19:49:47.518Z,1.00
2018-12-19T19:52:23.507Z,1.00
2018-12-19T19:55:07.275Z,0.90
2018-12-19T19:57:40.084Z,0.90
2018-12-19T20:00:16.253Z,0.90
2018-12-19T20:10:29.528Z,0.90
2018-12-19T20:13:12.838Z,0.80
2018-12-19T20:15:47.479Z,0.90
2018-12-19T20:18:34.918Z,0.90
2018-12-19T20:21:20.847Z,0.80
2018-12-19T20:23:59.146Z,0.80
2018-12-19T20:26:33.284Z,0.70
2018-12-19T20:29:08.698Z,0.70
2018-12-19T20:31:52.558Z,0.70
2018-12-19T20:34:33.322Z,0.70
2018-12-19T20:37:10.014Z,0.70
2018-12-19T20:39:58.076Z,0.70
2018-12-19T20:42:46.951Z,0.70
2018-12-19T20:45:23.945Z,0.70
2018-12-19T20:48:03.809Z,0.70
2018-12-19T20:53:40.258Z,0.60
2018-12-19T20:56:22.131Z,0.60
2018-12-19T20:58:55.175Z,0.60
2018-12-19T21:01:28.598Z,0.60
2018-12-19T21:04:03.428Z,0.50
2018-12-19T21:06:49.225Z,0.50
2018-12-19T21:09:37.948Z,0.50
2018-12-19T21:12:12.947Z,0.50
2018-12-19T21:14:47.907Z,0.50
2018-12-19T21:17:34.197Z,0.40
2018-12-19T21:20:07.384Z,0.40
2018-12-19T21:22:40.674Z,0.40
2018-12-19T21:25:27.598Z,0.40
2018-12-19T21:28:10.018Z,0.40
2018-12-19T21:30:51.202Z,0.40
2018-12-19T21:33:34.304Z,0.40
2018-12-19T21:36:09.727Z,0.30
2018-12-19T21:38:47.030Z,0.30
2018-12-19T21:41:23.482Z,0.20
2018-12-19T21:44:01.293Z,0.30
2018-12-19T21:46:35.712Z,0.20
2018-12-19T21:49:11.049Z,0.20
2018-12-19T21:51:43.962Z,0.20
2018-12-19T21:54:28.646Z,0.20
2018-12-19T21:57:03.327Z,0.10
2018-12-19T21:59:36.188Z,0.10
2018-12-19T22:02:10.463Z,0.10
2018-12-19T22:04:54.177Z,0.10
2018-12-19T22:07:29.274Z,0.10
2018-12-19T22:10:04.466Z,0.20
2018-12-19T22:12:51.486Z,0.10
2018-12-19T22:15:27.136Z,0.10
2018-12-19T22:18:11.307Z,0.00
2018-12-19T22:20:53.315Z,0.00
2018-12-19T22:23:40.167Z,0.10
2018-12-19T22:26:15.066Z,0.00
2018-12-19T22:28:47.814Z,0.00
2018-12-19T22:31:20.247Z,0.00
2018-12-19T22:33:53.075Z,0.00
2018-12-19T22:36:25.384Z,0.00
2018-12-19T22:39:06.724Z,-0.10
2018-12-19T22:41:41.395Z,-0.20
2018-12-19T22:44:15.202Z,-0.20
2018-12-19T22:46:52.404Z,-0.20
2018-12-19T22:49:25.844Z,-0.20
2018-12-19T22:52:04.662Z,-0.20
2018-12-19T22:54:38.595Z,-0.20
2018-12-19T22:57:13.586Z,-0.20
2018-12-19T22:59:56.749Z,-0.20
2018-12-19T23:02:35.154Z,-0.20
2018-12-19T23:05:09.558Z,-0.20
2018-12-19T23:07:42.942Z,-0.20
2018-12-19T23:10:14.984Z,-0.20
2018-12-19T23:12:46.925Z,-0.20
2018-12-19T23:15:20.134Z,-0.20
2018-12-19T23:20:24.728Z,-0.20
2018-12-19T23:22:57.725Z,-0.20
2018-12-19T23:25:30.175Z,-0.20
2018-12-19T23:28:02.325Z,-0.20
2018-12-19T23:30:43.331Z,-0.20
2018-12-19T23:33:15.770Z,-0.30
2018-12-19T23:35:50.109Z,-0.30
2018-12-19T23:38:22.774Z,-0.20
2018-12-19T23:40:57.338Z,-0.20
2018-12-19T23:43:29.750Z,-0.20
2018-12-19T23:46:03.273Z,-0.20
2018-12-19T23:48:37.403Z,-0.20
2018-12-19T23:51:11.140Z,-0.20
2018-12-19T23:53:43.600Z,-0.20
2018-12-19T23:56:19.113Z,-0.30
2018-12-19T23:58:59.382Z,-0.30
